sensor_id;sensor_type;location;lat;lon;timestamp;P1;durP1;ratioP1;P2;durP2;ratioP2
24799;SDS011;12897;50.812;4.430;2024-03-17T00:02:09;9.75;;;4.85;;
24799;SDS011;12897;50.812;4.430;2024-03-17T00:04:36;8.23;;;4.40;;
24799;SDS011;12897;50.812;4.430;2024-03-17T00:07:04;10.45;;;4.65;;
24799;SDS011;12897;50.812;4.430;2024-03-17T00:09:32;7.87;;;4.25;;
24799;SDS011;12897;50.812;4.430;2024-03-17T00:11:59;8.23;;;4.55;;
24799;SDS011;12897;50.812;4.430;2024-03-17T00:14:27;6.42;;;4.25;;
24799;SDS011;12897;50.812;4.430;2024-03-17T00:16:54;8.65;;;4.62;;
24799;SDS011;12897;50.812;4.430;2024-03-17T00:19:28;9.08;;;4.40;;
24799;SDS011;12897;50.812;4.430;2024-03-17T00:21:52;10.05;;;4.72;;
24799;SDS011;12897;50.812;4.430;2024-03-17T00:24:20;11.50;;;4.53;;
24799;SDS011;12897;50.812;4.430;2024-03-17T00:26:50;8.35;;;4.72;;
24799;SDS011;12897;50.812;4.430;2024-03-17T00:29:17;9.48;;;4.10;;
24799;SDS011;12897;50.812;4.430;2024-03-17T00:31:44;8.75;;;4.00;;
24799;SDS011;12897;50.812;4.430;2024-03-17T00:34:12;9.95;;;4.03;;
24799;SDS011;12897;50.812;4.430;2024-03-17T00:36:41;7.65;;;3.83;;
24799;SDS011;12897;50.812;4.430;2024-03-17T00:39:09;8.30;;;4.15;;
24799;SDS011;12897;50.812;4.430;2024-03-17T00:41:37;11.50;;;4.00;;
24799;SDS011;12897;50.812;4.430;2024-03-17T00:44:05;6.22;;;3.87;;
24799;SDS011;12897;50.812;4.430;2024-03-17T00:46:32;10.05;;;4.85;;
24799;SDS011;12897;50.812;4.430;2024-03-17T00:49:00;9.55;;;4.08;;
24799;SDS011;12897;50.812;4.430;2024-03-17T00:51:27;11.57;;;4.20;;
24799;SDS011;12897;50.812;4.430;2024-03-17T00:53:58;7.60;;;4.10;;
24799;SDS011;12897;50.812;4.430;2024-03-17T00:56:24;7.83;;;4.30;;
24799;SDS011;12897;50.812;4.430;2024-03-17T01:01:21;8.15;;;4.28;;
24799;SDS011;12897;50.812;4.430;2024-03-17T01:03:51;10.65;;;4.67;;
24799;SDS011;12897;50.812;4.430;2024-03-17T01:06:20;9.83;;;4.85;;
24799;SDS011;12897;50.812;4.430;2024-03-17T01:08:48;8.70;;;4.72;;
24799;SDS011;12897;50.812;4.430;2024-03-17T01:11:17;8.45;;;4.20;;
24799;SDS011;12897;50.812;4.430;2024-03-17T01:13:45;12.53;;;4.45;;
24799;SDS011;12897;50.812;4.430;2024-03-17T01:16:15;8.38;;;4.10;;
24799;SDS011;12897;50.812;4.430;2024-03-17T01:18:42;14.15;;;4.17;;
24799;SDS011;12897;50.812;4.430;2024-03-17T01:21:11;8.98;;;4.70;;
24799;SDS011;12897;50.812;4.430;2024-03-17T01:23:39;9.28;;;4.20;;
24799;SDS011;12897;50.812;4.430;2024-03-17T01:26:09;10.78;;;3.65;;
24799;SDS011;12897;50.812;4.430;2024-03-17T01:28:37;8.00;;;3.85;;
24799;SDS011;12897;50.812;4.430;2024-03-17T01:31:07;9.33;;;4.60;;
24799;SDS011;12897;50.812;4.430;2024-03-17T01:33:35;7.55;;;4.10;;
24799;SDS011;12897;50.812;4.430;2024-03-17T01:36:02;10.28;;;4.00;;
24799;SDS011;12897;50.812;4.430;2024-03-17T01:38:31;11.10;;;4.08;;
24799;SDS011;12897;50.812;4.430;2024-03-17T01:40:59;10.85;;;4.35;;
24799;SDS011;12897;50.812;4.430;2024-03-17T01:43:27;9.33;;;3.95;;
24799;SDS011;12897;50.812;4.430;2024-03-17T01:45:56;9.45;;;3.98;;
24799;SDS011;12897;50.812;4.430;2024-03-17T01:48:27;10.82;;;3.72;;
24799;SDS011;12897;50.812;4.430;2024-03-17T01:50:55;6.25;;;3.70;;
24799;SDS011;12897;50.812;4.430;2024-03-17T01:53:24;10.75;;;3.80;;
24799;SDS011;12897;50.812;4.430;2024-03-17T01:58:26;7.65;;;3.35;;
24799;SDS011;12897;50.812;4.430;2024-03-17T02:00:56;8.15;;;3.40;;
24799;SDS011;12897;50.812;4.430;2024-03-17T02:03:24;6.03;;;3.25;;
24799;SDS011;12897;50.812;4.430;2024-03-17T02:05:57;9.90;;;3.45;;
24799;SDS011;12897;50.812;4.430;2024-03-17T02:08:25;5.50;;;3.47;;
24799;SDS011;12897;50.812;4.430;2024-03-17T02:10:55;6.03;;;3.15;;
24799;SDS011;12897;50.812;4.430;2024-03-17T02:13:23;6.45;;;3.58;;
24799;SDS011;12897;50.812;4.430;2024-03-17T02:15:51;6.53;;;3.40;;
24799;SDS011;12897;50.812;4.430;2024-03-17T02:18:18;10.58;;;3.62;;
24799;SDS011;12897;50.812;4.430;2024-03-17T02:20:46;7.00;;;3.70;;
24799;SDS011;12897;50.812;4.430;2024-03-17T02:23:21;10.90;;;3.92;;
24799;SDS011;12897;50.812;4.430;2024-03-17T02:25:51;10.13;;;3.50;;
24799;SDS011;12897;50.812;4.430;2024-03-17T02:28:20;7.85;;;3.30;;
24799;SDS011;12897;50.812;4.430;2024-03-17T02:30:48;7.75;;;3.70;;
24799;SDS011;12897;50.812;4.430;2024-03-17T02:33:15;9.45;;;4.03;;
24799;SDS011;12897;50.812;4.430;2024-03-17T02:35:43;8.70;;;4.12;;
24799;SDS011;12897;50.812;4.430;2024-03-17T02:38:14;8.18;;;4.22;;
24799;SDS011;12897;50.812;4.430;2024-03-17T02:40:43;11.10;;;4.08;;
24799;SDS011;12897;50.812;4.430;2024-03-17T02:43:11;9.00;;;3.77;;
24799;SDS011;12897;50.812;4.430;2024-03-17T02:45:38;12.43;;;3.75;;
24799;SDS011;12897;50.812;4.430;2024-03-17T02:48:06;7.33;;;3.95;;
24799;SDS011;12897;50.812;4.430;2024-03-17T02:50:34;8.10;;;4.30;;
24799;SDS011;12897;50.812;4.430;2024-03-17T02:53:03;8.48;;;3.62;;
24799;SDS011;12897;50.812;4.430;2024-03-17T02:55:33;11.25;;;4.83;;
24799;SDS011;12897;50.812;4.430;2024-03-17T02:57:59;10.45;;;3.87;;
24799;SDS011;12897;50.812;4.430;2024-03-17T03:00:27;9.08;;;3.47;;
24799;SDS011;12897;50.812;4.430;2024-03-17T03:02:55;9.40;;;3.98;;
24799;SDS011;12897;50.812;4.430;2024-03-17T03:05:23;11.75;;;4.40;;
24799;SDS011;12897;50.812;4.430;2024-03-17T03:07:51;7.05;;;3.60;;
24799;SDS011;12897;50.812;4.430;2024-03-17T03:10:18;6.60;;;3.17;;
24799;SDS011;12897;50.812;4.430;2024-03-17T03:12:46;8.70;;;4.10;;
24799;SDS011;12897;50.812;4.430;2024-03-17T03:15:14;6.55;;;3.98;;
24799;SDS011;12897;50.812;4.430;2024-03-17T03:17:41;9.90;;;4.17;;
24799;SDS011;12897;50.812;4.430;2024-03-17T03:20:11;9.28;;;4.00;;
24799;SDS011;12897;50.812;4.430;2024-03-17T03:22:39;7.28;;;3.85;;
24799;SDS011;12897;50.812;4.430;2024-03-17T03:25:07;11.50;;;4.65;;
24799;SDS011;12897;50.812;4.430;2024-03-17T03:27:36;9.53;;;4.00;;
24799;SDS011;12897;50.812;4.430;2024-03-17T03:30:05;8.63;;;3.58;;
24799;SDS011;12897;50.812;4.430;2024-03-17T03:32:35;9.48;;;4.05;;
24799;SDS011;12897;50.812;4.430;2024-03-17T03:37:34;11.90;;;4.12;;
24799;SDS011;12897;50.812;4.430;2024-03-17T03:40:02;8.58;;;4.05;;
24799;SDS011;12897;50.812;4.430;2024-03-17T03:42:32;12.40;;;4.55;;
24799;SDS011;12897;50.812;4.430;2024-03-17T03:44:59;8.35;;;4.33;;
24799;SDS011;12897;50.812;4.430;2024-03-17T03:47:27;9.48;;;4.80;;
24799;SDS011;12897;50.812;4.430;2024-03-17T03:49:54;8.83;;;4.60;;
24799;SDS011;12897;50.812;4.430;2024-03-17T03:52:22;7.97;;;4.42;;
24799;SDS011;12897;50.812;4.430;2024-03-17T03:54:54;9.83;;;4.62;;
24799;SDS011;12897;50.812;4.430;2024-03-17T03:57:21;9.28;;;4.87;;
24799;SDS011;12897;50.812;4.430;2024-03-17T03:59:50;9.00;;;4.23;;
24799;SDS011;12897;50.812;4.430;2024-03-17T04:02:18;9.98;;;4.83;;
24799;SDS011;12897;50.812;4.430;2024-03-17T04:04:46;9.53;;;4.40;;
24799;SDS011;12897;50.812;4.430;2024-03-17T04:07:13;7.92;;;4.33;;
24799;SDS011;12897;50.812;4.430;2024-03-17T04:09:42;13.70;;;4.90;;
24799;SDS011;12897;50.812;4.430;2024-03-17T04:12:10;11.33;;;4.75;;
24799;SDS011;12897;50.812;4.430;2024-03-17T04:14:38;12.25;;;4.62;;
24799;SDS011;12897;50.812;4.430;2024-03-17T04:17:06;10.30;;;4.37;;
24799;SDS011;12897;50.812;4.430;2024-03-17T04:19:33;11.08;;;4.83;;
24799;SDS011;12897;50.812;4.430;2024-03-17T04:22:01;10.88;;;5.03;;
24799;SDS011;12897;50.812;4.430;2024-03-17T04:24:29;10.03;;;4.55;;
24799;SDS011;12897;50.812;4.430;2024-03-17T04:26:57;13.48;;;5.45;;
24799;SDS011;12897;50.812;4.430;2024-03-17T04:29:24;11.75;;;4.72;;
24799;SDS011;12897;50.812;4.430;2024-03-17T04:31:55;12.53;;;5.12;;
24799;SDS011;12897;50.812;4.430;2024-03-17T04:34:23;9.98;;;4.42;;
24799;SDS011;12897;50.812;4.430;2024-03-17T04:36:50;10.63;;;5.25;;
24799;SDS011;12897;50.812;4.430;2024-03-17T04:39:19;9.88;;;4.28;;
24799;SDS011;12897;50.812;4.430;2024-03-17T04:41:47;9.63;;;4.62;;
24799;SDS011;12897;50.812;4.430;2024-03-17T04:44:17;11.03;;;4.25;;
24799;SDS011;12897;50.812;4.430;2024-03-17T04:46:45;11.83;;;4.57;;
24799;SDS011;12897;50.812;4.430;2024-03-17T04:49:13;13.20;;;4.72;;
24799;SDS011;12897;50.812;4.430;2024-03-17T04:51:41;12.20;;;4.70;;
24799;SDS011;12897;50.812;4.430;2024-03-17T04:54:08;8.83;;;4.58;;
24799;SDS011;12897;50.812;4.430;2024-03-17T04:56:36;12.40;;;4.58;;
24799;SDS011;12897;50.812;4.430;2024-03-17T04:59:06;11.08;;;4.45;;
24799;SDS011;12897;50.812;4.430;2024-03-17T05:01:34;10.35;;;4.20;;
24799;SDS011;12897;50.812;4.430;2024-03-17T05:04:02;7.53;;;4.35;;
24799;SDS011;12897;50.812;4.430;2024-03-17T05:06:30;8.63;;;4.20;;
24799;SDS011;12897;50.812;4.430;2024-03-17T05:09:00;9.68;;;4.65;;
24799;SDS011;12897;50.812;4.430;2024-03-17T05:11:30;10.75;;;4.12;;
24799;SDS011;12897;50.812;4.430;2024-03-17T05:14:00;10.40;;;5.37;;
24799;SDS011;12897;50.812;4.430;2024-03-17T05:16:32;6.22;;;3.77;;
24799;SDS011;12897;50.812;4.430;2024-03-17T05:18:59;7.95;;;4.62;;
24799;SDS011;12897;50.812;4.430;2024-03-17T05:21:27;12.53;;;4.50;;
24799;SDS011;12897;50.812;4.430;2024-03-17T05:23:58;8.28;;;4.00;;
24799;SDS011;12897;50.812;4.430;2024-03-17T05:26:30;10.48;;;4.12;;
24799;SDS011;12897;50.812;4.430;2024-03-17T05:28:57;10.88;;;4.22;;
24799;SDS011;12897;50.812;4.430;2024-03-17T05:31:25;7.08;;;4.05;;
24799;SDS011;12897;50.812;4.430;2024-03-17T05:33:53;8.45;;;4.17;;
24799;SDS011;12897;50.812;4.430;2024-03-17T05:36:21;8.18;;;4.65;;
24799;SDS011;12897;50.812;4.430;2024-03-17T05:38:48;7.70;;;4.00;;
24799;SDS011;12897;50.812;4.430;2024-03-17T05:41:16;7.17;;;4.08;;
24799;SDS011;12897;50.812;4.430;2024-03-17T05:43:46;8.85;;;4.40;;
24799;SDS011;12897;50.812;4.430;2024-03-17T05:46:14;13.68;;;4.62;;
24799;SDS011;12897;50.812;4.430;2024-03-17T05:48:43;9.35;;;3.77;;
24799;SDS011;12897;50.812;4.430;2024-03-17T05:51:11;8.88;;;3.92;;
24799;SDS011;12897;50.812;4.430;2024-03-17T05:53:40;10.90;;;4.35;;
24799;SDS011;12897;50.812;4.430;2024-03-17T05:56:10;14.40;;;4.50;;
24799;SDS011;12897;50.812;4.430;2024-03-17T05:58:38;11.60;;;4.33;;
24799;SDS011;12897;50.812;4.430;2024-03-17T06:01:08;8.98;;;4.55;;
24799;SDS011;12897;50.812;4.430;2024-03-17T06:03:38;9.90;;;4.10;;
24799;SDS011;12897;50.812;4.430;2024-03-17T06:06:07;9.13;;;4.45;;
24799;SDS011;12897;50.812;4.430;2024-03-17T06:08:38;11.97;;;4.90;;
24799;SDS011;12897;50.812;4.430;2024-03-17T06:11:05;11.83;;;4.28;;
24799;SDS011;12897;50.812;4.430;2024-03-17T06:13:34;10.18;;;3.95;;
24799;SDS011;12897;50.812;4.430;2024-03-17T06:16:05;8.93;;;3.87;;
24799;SDS011;12897;50.812;4.430;2024-03-17T06:18:32;10.90;;;4.33;;
24799;SDS011;12897;50.812;4.430;2024-03-17T06:20:59;14.60;;;4.95;;
24799;SDS011;12897;50.812;4.430;2024-03-17T06:23:28;11.33;;;4.40;;
24799;SDS011;12897;50.812;4.430;2024-03-17T06:25:56;9.70;;;4.62;;
24799;SDS011;12897;50.812;4.430;2024-03-17T06:28:31;10.08;;;3.98;;
24799;SDS011;12897;50.812;4.430;2024-03-17T06:30:56;9.60;;;4.75;;
24799;SDS011;12897;50.812;4.430;2024-03-17T06:33:29;8.53;;;4.05;;
24799;SDS011;12897;50.812;4.430;2024-03-17T06:36:05;6.97;;;4.73;;
24799;SDS011;12897;50.812;4.430;2024-03-17T06:38:30;9.48;;;4.45;;
24799;SDS011;12897;50.812;4.430;2024-03-17T06:40:58;9.80;;;4.30;;
24799;SDS011;12897;50.812;4.430;2024-03-17T06:43:27;9.88;;;4.60;;
24799;SDS011;12897;50.812;4.430;2024-03-17T06:46:00;9.50;;;4.42;;
24799;SDS011;12897;50.812;4.430;2024-03-17T06:48:31;13.93;;;4.62;;
24799;SDS011;12897;50.812;4.430;2024-03-17T06:50:57;9.08;;;3.87;;
24799;SDS011;12897;50.812;4.430;2024-03-17T06:53:24;9.45;;;4.15;;
24799;SDS011;12897;50.812;4.430;2024-03-17T06:58:30;11.93;;;4.40;;
24799;SDS011;12897;50.812;4.430;2024-03-17T07:01:00;10.00;;;4.00;;
24799;SDS011;12897;50.812;4.430;2024-03-17T07:03:29;9.55;;;4.30;;
24799;SDS011;12897;50.812;4.430;2024-03-17T07:05:59;9.15;;;3.90;;
24799;SDS011;12897;50.812;4.430;2024-03-17T07:08:31;7.95;;;3.70;;
24799;SDS011;12897;50.812;4.430;2024-03-17T07:10:59;7.90;;;4.17;;
24799;SDS011;12897;50.812;4.430;2024-03-17T07:13:33;7.62;;;3.95;;
24799;SDS011;12897;50.812;4.430;2024-03-17T07:16:08;8.03;;;3.80;;
24799;SDS011;12897;50.812;4.430;2024-03-17T07:18:37;11.15;;;3.92;;
24799;SDS011;12897;50.812;4.430;2024-03-17T07:21:05;6.00;;;3.42;;
24799;SDS011;12897;50.812;4.430;2024-03-17T07:23:36;8.38;;;3.85;;
24799;SDS011;12897;50.812;4.430;2024-03-17T07:26:05;7.55;;;3.92;;
24799;SDS011;12897;50.812;4.430;2024-03-17T07:31:06;5.92;;;3.08;;
24799;SDS011;12897;50.812;4.430;2024-03-17T07:33:41;7.37;;;3.60;;
24799;SDS011;12897;50.812;4.430;2024-03-17T07:36:11;6.30;;;2.93;;
24799;SDS011;12897;50.812;4.430;2024-03-17T07:38:38;6.28;;;3.30;;
24799;SDS011;12897;50.812;4.430;2024-03-17T07:41:09;10.75;;;3.17;;
24799;SDS011;12897;50.812;4.430;2024-03-17T07:43:38;4.75;;;2.90;;
24799;SDS011;12897;50.812;4.430;2024-03-17T07:46:07;8.53;;;3.27;;
24799;SDS011;12897;50.812;4.430;2024-03-17T07:48:38;5.67;;;3.37;;
24799;SDS011;12897;50.812;4.430;2024-03-17T07:51:12;6.30;;;3.47;;
24799;SDS011;12897;50.812;4.430;2024-03-17T07:53:43;4.50;;;2.83;;
24799;SDS011;12897;50.812;4.430;2024-03-17T07:56:15;7.95;;;2.62;;
24799;SDS011;12897;50.812;4.430;2024-03-17T07:58:45;7.75;;;3.30;;
24799;SDS011;12897;50.812;4.430;2024-03-17T08:01:22;8.68;;;3.00;;
24799;SDS011;12897;50.812;4.430;2024-03-17T08:03:56;11.95;;;3.00;;
24799;SDS011;12897;50.812;4.430;2024-03-17T08:06:21;6.55;;;2.98;;
24799;SDS011;12897;50.812;4.430;2024-03-17T08:08:55;5.72;;;2.70;;
24799;SDS011;12897;50.812;4.430;2024-03-17T08:11:20;6.12;;;2.83;;
24799;SDS011;12897;50.812;4.430;2024-03-17T08:13:50;5.00;;;2.70;;
24799;SDS011;12897;50.812;4.430;2024-03-17T08:16:20;5.90;;;2.77;;
24799;SDS011;12897;50.812;4.430;2024-03-17T08:18:47;7.20;;;2.98;;
24799;SDS011;12897;50.812;4.430;2024-03-17T08:21:15;6.70;;;3.08;;
24799;SDS011;12897;50.812;4.430;2024-03-17T08:23:45;6.10;;;3.05;;
24799;SDS011;12897;50.812;4.430;2024-03-17T08:26:12;8.18;;;3.05;;
24799;SDS011;12897;50.812;4.430;2024-03-17T08:28:43;4.67;;;2.58;;
24799;SDS011;12897;50.812;4.430;2024-03-17T08:31:13;7.45;;;2.85;;
24799;SDS011;12897;50.812;4.430;2024-03-17T08:33:48;3.98;;;2.40;;
24799;SDS011;12897;50.812;4.430;2024-03-17T08:36:22;4.72;;;2.58;;
24799;SDS011;12897;50.812;4.430;2024-03-17T08:38:47;5.85;;;2.50;;
24799;SDS011;12897;50.812;4.430;2024-03-17T08:41:23;12.75;;;2.95;;
24799;SDS011;12897;50.812;4.430;2024-03-17T08:43:55;6.97;;;2.55;;
24799;SDS011;12897;50.812;4.430;2024-03-17T08:46:24;3.70;;;2.20;;
24799;SDS011;12897;50.812;4.430;2024-03-17T08:49:01;5.35;;;2.42;;
24799;SDS011;12897;50.812;4.430;2024-03-17T08:51:31;4.47;;;2.67;;
24799;SDS011;12897;50.812;4.430;2024-03-17T08:54:06;5.28;;;2.60;;
24799;SDS011;12897;50.812;4.430;2024-03-17T08:59:20;6.47;;;2.35;;
24799;SDS011;12897;50.812;4.430;2024-03-17T09:01:50;6.73;;;2.63;;
24799;SDS011;12897;50.812;4.430;2024-03-17T09:04:19;5.97;;;3.12;;
24799;SDS011;12897;50.812;4.430;2024-03-17T09:06:52;6.05;;;2.87;;
24799;SDS011;12897;50.812;4.430;2024-03-17T09:09:22;4.85;;;2.47;;
24799;SDS011;12897;50.812;4.430;2024-03-17T09:11:51;6.17;;;2.52;;
24799;SDS011;12897;50.812;4.430;2024-03-17T09:14:19;5.60;;;2.72;;
24799;SDS011;12897;50.812;4.430;2024-03-17T09:16:47;5.58;;;2.37;;
24799;SDS011;12897;50.812;4.430;2024-03-17T09:19:17;5.28;;;2.35;;
24799;SDS011;12897;50.812;4.430;2024-03-17T09:21:44;6.35;;;2.35;;
24799;SDS011;12897;50.812;4.430;2024-03-17T09:24:13;5.25;;;2.50;;
24799;SDS011;12897;50.812;4.430;2024-03-17T09:26:41;5.87;;;2.70;;
24799;SDS011;12897;50.812;4.430;2024-03-17T09:29:08;5.67;;;2.67;;
24799;SDS011;12897;50.812;4.430;2024-03-17T09:31:39;4.42;;;2.33;;
24799;SDS011;12897;50.812;4.430;2024-03-17T09:34:07;6.00;;;2.58;;
24799;SDS011;12897;50.812;4.430;2024-03-17T09:36:35;4.00;;;2.90;;
24799;SDS011;12897;50.812;4.430;2024-03-17T09:39:07;5.35;;;2.50;;
24799;SDS011;12897;50.812;4.430;2024-03-17T09:41:35;8.33;;;2.30;;
24799;SDS011;12897;50.812;4.430;2024-03-17T09:44:04;6.20;;;2.40;;
24799;SDS011;12897;50.812;4.430;2024-03-17T09:46:34;6.65;;;2.85;;
24799;SDS011;12897;50.812;4.430;2024-03-17T09:49:09;10.00;;;2.52;;
24799;SDS011;12897;50.812;4.430;2024-03-17T09:51:43;6.12;;;2.70;;
24799;SDS011;12897;50.812;4.430;2024-03-17T09:54:21;6.22;;;2.40;;
24799;SDS011;12897;50.812;4.430;2024-03-17T09:56:48;8.03;;;2.85;;
24799;SDS011;12897;50.812;4.430;2024-03-17T09:59:16;7.45;;;2.92;;
24799;SDS011;12897;50.812;4.430;2024-03-17T10:01:44;7.90;;;2.75;;
24799;SDS011;12897;50.812;4.430;2024-03-17T10:04:23;3.20;;;2.55;;
24799;SDS011;12897;50.812;4.430;2024-03-17T10:06:45;4.60;;;2.30;;
24799;SDS011;12897;50.812;4.430;2024-03-17T10:09:18;3.95;;;2.35;;
24799;SDS011;12897;50.812;4.430;2024-03-17T10:11:49;9.48;;;2.50;;
24799;SDS011;12897;50.812;4.430;2024-03-17T10:14:21;4.57;;;2.40;;
24799;SDS011;12897;50.812;4.430;2024-03-17T10:16:54;3.27;;;2.30;;
24799;SDS011;12897;50.812;4.430;2024-03-17T10:19:23;4.97;;;2.47;;
24799;SDS011;12897;50.812;4.430;2024-03-17T10:22:01;6.08;;;2.47;;
24799;SDS011;12897;50.812;4.430;2024-03-17T10:24:29;3.08;;;2.20;;
24799;SDS011;12897;50.812;4.430;2024-03-17T10:26:57;4.65;;;2.22;;
24799;SDS011;12897;50.812;4.430;2024-03-17T10:29:32;6.58;;;2.55;;
24799;SDS011;12897;50.812;4.430;2024-03-17T10:32:03;4.90;;;2.22;;
24799;SDS011;12897;50.812;4.430;2024-03-17T10:37:20;5.50;;;2.45;;
24799;SDS011;12897;50.812;4.430;2024-03-17T10:39:51;5.65;;;2.42;;
24799;SDS011;12897;50.812;4.430;2024-03-17T10:42:28;5.30;;;2.10;;
24799;SDS011;12897;50.812;4.430;2024-03-17T10:44:58;7.72;;;2.52;;
24799;SDS011;12897;50.812;4.430;2024-03-17T10:47:30;5.08;;;1.65;;
24799;SDS011;12897;50.812;4.430;2024-03-17T10:50:06;6.17;;;2.67;;
24799;SDS011;12897;50.812;4.430;2024-03-17T10:52:38;6.35;;;2.27;;
24799;SDS011;12897;50.812;4.430;2024-03-17T10:55:12;4.50;;;2.20;;
24799;SDS011;12897;50.812;4.430;2024-03-17T10:57:46;4.90;;;1.80;;
24799;SDS011;12897;50.812;4.430;2024-03-17T11:00:17;5.75;;;2.47;;
24799;SDS011;12897;50.812;4.430;2024-03-17T11:02:54;4.28;;;2.10;;
24799;SDS011;12897;50.812;4.430;2024-03-17T11:05:24;6.65;;;2.05;;
24799;SDS011;12897;50.812;4.430;2024-03-17T11:07:56;6.03;;;2.12;;
24799;SDS011;12897;50.812;4.430;2024-03-17T11:10:33;3.62;;;1.85;;
24799;SDS011;12897;50.812;4.430;2024-03-17T11:13:17;3.92;;;1.80;;
24799;SDS011;12897;50.812;4.430;2024-03-17T11:15:38;4.00;;;1.75;;
24799;SDS011;12897;50.812;4.430;2024-03-17T11:20:42;3.45;;;1.72;;
24799;SDS011;12897;50.812;4.430;2024-03-17T11:23:12;4.35;;;1.67;;
24799;SDS011;12897;50.812;4.430;2024-03-17T11:25:53;4.83;;;1.87;;
24799;SDS011;12897;50.812;4.430;2024-03-17T11:34:29;8.53;;;1.92;;
24799;SDS011;12897;50.812;4.430;2024-03-17T11:36:59;8.83;;;2.00;;
24799;SDS011;12897;50.812;4.430;2024-03-17T11:42:17;3.80;;;1.60;;
24799;SDS011;12897;50.812;4.430;2024-03-17T11:44:55;6.03;;;1.52;;
24799;SDS011;12897;50.812;4.430;2024-03-17T11:47:40;4.90;;;1.62;;
24799;SDS011;12897;50.812;4.430;2024-03-17T11:50:09;4.97;;;1.85;;
24799;SDS011;12897;50.812;4.430;2024-03-17T11:52:43;3.52;;;1.12;;
24799;SDS011;12897;50.812;4.430;2024-03-17T11:55:15;2.80;;;1.42;;
24799;SDS011;12897;50.812;4.430;2024-03-17T11:57:44;5.47;;;1.65;;
24799;SDS011;12897;50.812;4.430;2024-03-17T12:00:22;4.15;;;1.50;;
24799;SDS011;12897;50.812;4.430;2024-03-17T12:02:50;4.28;;;1.20;;
24799;SDS011;12897;50.812;4.430;2024-03-17T12:05:18;6.20;;;1.30;;
24799;SDS011;12897;50.812;4.430;2024-03-17T12:07:47;5.37;;;1.17;;
24799;SDS011;12897;50.812;4.430;2024-03-17T12:10:17;6.95;;;1.35;;
24799;SDS011;12897;50.812;4.430;2024-03-17T12:12:46;3.85;;;1.22;;
24799;SDS011;12897;50.812;4.430;2024-03-17T12:15:16;5.62;;;1.40;;
24799;SDS011;12897;50.812;4.430;2024-03-17T12:17:45;1.32;;;1.10;;
24799;SDS011;12897;50.812;4.430;2024-03-17T12:20:19;4.35;;;1.32;;
24799;SDS011;12897;50.812;4.430;2024-03-17T12:22:49;3.30;;;1.12;;
24799;SDS011;12897;50.812;4.430;2024-03-17T12:25:20;2.52;;;1.20;;
24799;SDS011;12897;50.812;4.430;2024-03-17T12:27:50;6.00;;;1.25;;
24799;SDS011;12897;50.812;4.430;2024-03-17T12:30:17;4.17;;;0.90;;
24799;SDS011;12897;50.812;4.430;2024-03-17T12:32:46;2.58;;;1.20;;
24799;SDS011;12897;50.812;4.430;2024-03-17T12:35:16;4.47;;;1.07;;
24799;SDS011;12897;50.812;4.430;2024-03-17T12:37:44;5.25;;;1.20;;
24799;SDS011;12897;50.812;4.430;2024-03-17T12:40:21;1.82;;;1.10;;
24799;SDS011;12897;50.812;4.430;2024-03-17T12:42:49;5.03;;;1.25;;
24799;SDS011;12897;50.812;4.430;2024-03-17T12:45:25;8.10;;;1.17;;
24799;SDS011;12897;50.812;4.430;2024-03-17T12:47:49;5.80;;;1.02;;
24799;SDS011;12897;50.812;4.430;2024-03-17T12:50:18;4.17;;;1.12;;
24799;SDS011;12897;50.812;4.430;2024-03-17T12:52:55;2.30;;;1.20;;
24799;SDS011;12897;50.812;4.430;2024-03-17T12:55:23;3.80;;;1.98;;
24799;SDS011;12897;50.812;4.430;2024-03-17T12:58:09;5.37;;;1.10;;
24799;SDS011;12897;50.812;4.430;2024-03-17T13:03:33;4.33;;;1.27;;
24799;SDS011;12897;50.812;4.430;2024-03-17T13:06:02;3.25;;;1.30;;
24799;SDS011;12897;50.812;4.430;2024-03-17T13:08:32;5.05;;;1.12;;
24799;SDS011;12897;50.812;4.430;2024-03-17T13:11:01;7.65;;;1.30;;
24799;SDS011;12897;50.812;4.430;2024-03-17T13:13:30;4.67;;;1.10;;
24799;SDS011;12897;50.812;4.430;2024-03-17T13:15:57;3.25;;;1.12;;
24799;SDS011;12897;50.812;4.430;2024-03-17T13:18:25;2.77;;;1.10;;
24799;SDS011;12897;50.812;4.430;2024-03-17T13:21:17;5.65;;;1.30;;
24799;SDS011;12897;50.812;4.430;2024-03-17T13:23:28;9.25;;;1.17;;
24799;SDS011;12897;50.812;4.430;2024-03-17T13:25:55;3.40;;;1.22;;
24799;SDS011;12897;50.812;4.430;2024-03-17T13:28:27;6.70;;;1.20;;
24799;SDS011;12897;50.812;4.430;2024-03-17T13:30:56;5.05;;;1.20;;
24799;SDS011;12897;50.812;4.430;2024-03-17T13:33:24;5.20;;;1.22;;
24799;SDS011;12897;50.812;4.430;2024-03-17T13:35:55;4.55;;;1.20;;
24799;SDS011;12897;50.812;4.430;2024-03-17T13:38:22;5.53;;;1.30;;
24799;SDS011;12897;50.812;4.430;2024-03-17T13:40:55;4.30;;;1.20;;
24799;SDS011;12897;50.812;4.430;2024-03-17T13:43:19;1.82;;;0.80;;
24799;SDS011;12897;50.812;4.430;2024-03-17T13:45:51;3.85;;;1.32;;
24799;SDS011;12897;50.812;4.430;2024-03-17T13:48:15;5.40;;;1.30;;
24799;SDS011;12897;50.812;4.430;2024-03-17T13:50:43;7.00;;;1.62;;
24799;SDS011;12897;50.812;4.430;2024-03-17T13:53:13;4.17;;;1.20;;
24799;SDS011;12897;50.812;4.430;2024-03-17T13:55:41;4.37;;;1.30;;
24799;SDS011;12897;50.812;4.430;2024-03-17T13:58:08;4.65;;;1.10;;
24799;SDS011;12897;50.812;4.430;2024-03-17T14:00:37;3.87;;;1.07;;
24799;SDS011;12897;50.812;4.430;2024-03-17T14:03:07;4.57;;;1.43;;
24799;SDS011;12897;50.812;4.430;2024-03-17T14:05:38;4.20;;;1.25;;
24799;SDS011;12897;50.812;4.430;2024-03-17T14:08:07;6.63;;;1.30;;
24799;SDS011;12897;50.812;4.430;2024-03-17T14:10:35;4.50;;;1.32;;
24799;SDS011;12897;50.812;4.430;2024-03-17T14:13:02;4.08;;;1.07;;
24799;SDS011;12897;50.812;4.430;2024-03-17T14:15:30;2.12;;;0.90;;
24799;SDS011;12897;50.812;4.430;2024-03-17T14:17:58;5.12;;;1.42;;
24799;SDS011;12897;50.812;4.430;2024-03-17T14:20:27;7.70;;;1.25;;
24799;SDS011;12897;50.812;4.430;2024-03-17T14:22:55;5.92;;;1.10;;
24799;SDS011;12897;50.812;4.430;2024-03-17T14:25:23;8.58;;;1.70;;
24799;SDS011;12897;50.812;4.430;2024-03-17T14:27:51;5.45;;;1.40;;
24799;SDS011;12897;50.812;4.430;2024-03-17T14:30:19;5.30;;;1.00;;
24799;SDS011;12897;50.812;4.430;2024-03-17T14:32:47;4.33;;;1.57;;
24799;SDS011;12897;50.812;4.430;2024-03-17T14:35:15;3.25;;;1.15;;
24799;SDS011;12897;50.812;4.430;2024-03-17T14:37:45;2.33;;;1.00;;
24799;SDS011;12897;50.812;4.430;2024-03-17T14:40:19;4.92;;;1.20;;
24799;SDS011;12897;50.812;4.430;2024-03-17T14:42:50;4.08;;;1.67;;
24799;SDS011;12897;50.812;4.430;2024-03-17T14:45:18;3.85;;;1.30;;
24799;SDS011;12897;50.812;4.430;2024-03-17T14:47:47;3.27;;;1.40;;
24799;SDS011;12897;50.812;4.430;2024-03-17T14:50:15;5.67;;;1.05;;
24799;SDS011;12897;50.812;4.430;2024-03-17T14:52:43;2.25;;;1.22;;
24799;SDS011;12897;50.812;4.430;2024-03-17T14:55:12;3.87;;;1.10;;
24799;SDS011;12897;50.812;4.430;2024-03-17T14:57:40;3.17;;;1.62;;
24799;SDS011;12897;50.812;4.430;2024-03-17T15:00:15;5.75;;;1.17;;
24799;SDS011;12897;50.812;4.430;2024-03-17T15:02:46;2.10;;;0.90;;
24799;SDS011;12897;50.812;4.430;2024-03-17T15:05:15;3.22;;;1.10;;
24799;SDS011;12897;50.812;4.430;2024-03-17T15:07:44;2.25;;;1.10;;
24799;SDS011;12897;50.812;4.430;2024-03-17T15:10:12;6.67;;;1.60;;
24799;SDS011;12897;50.812;4.430;2024-03-17T15:12:40;2.77;;;1.20;;
24799;SDS011;12897;50.812;4.430;2024-03-17T15:15:08;3.37;;;1.22;;
24799;SDS011;12897;50.812;4.430;2024-03-17T15:17:38;5.55;;;1.40;;
24799;SDS011;12897;50.812;4.430;2024-03-17T15:20:06;5.97;;;1.40;;
24799;SDS011;12897;50.812;4.430;2024-03-17T15:22:49;4.53;;;1.30;;
24799;SDS011;12897;50.812;4.430;2024-03-17T15:25:17;5.87;;;1.27;;
24799;SDS011;12897;50.812;4.430;2024-03-17T15:27:46;5.95;;;1.10;;
24799;SDS011;12897;50.812;4.430;2024-03-17T15:30:14;4.92;;;1.45;;
24799;SDS011;12897;50.812;4.430;2024-03-17T15:32:48;4.35;;;1.50;;